sensor_id;sensor_type;location;lat;lon;timestamp;P1;durP1;ratioP1;P2;durP2;ratioP2
73593;SDS011;64760;53.404;23.498;2023-11-19T00:01:24;33.08;;;13.07;;
73593;SDS011;64760;53.404;23.498;2023-11-19T00:03:56;18.02;;;8.40;;
73593;SDS011;64760;53.404;23.498;2023-11-19T00:06:27;22.10;;;7.60;;
73593;SDS011;64760;53.404;23.498;2023-11-19T00:11:50;19.52;;;8.45;;
73593;SDS011;64760;53.404;23.498;2023-11-19T00:14:30;26.45;;;11.43;;
73593;SDS011;64760;53.404;23.498;2023-11-19T00:17:16;25.55;;;10.43;;
73593;SDS011;64760;53.404;23.498;2023-11-19T00:19:56;19.83;;;7.68;;
73593;SDS011;64760;53.404;23.498;2023-11-19T00:22:23;28.08;;;10.05;;
73593;SDS011;64760;53.404;23.498;2023-11-19T00:24:52;22.02;;;8.95;;
73593;SDS011;64760;53.404;23.498;2023-11-19T00:27:18;17.00;;;7.68;;
73593;SDS011;64760;53.404;23.498;2023-11-19T00:29:44;23.35;;;10.73;;
73593;SDS011;64760;53.404;23.498;2023-11-19T00:32:11;26.42;;;9.88;;
73593;SDS011;64760;53.404;23.498;2023-11-19T00:34:43;16.90;;;8.25;;
73593;SDS011;64760;53.404;23.498;2023-11-19T00:37:11;24.05;;;8.18;;
73593;SDS011;64760;53.404;23.498;2023-11-19T00:39:38;23.10;;;9.65;;
73593;SDS011;64760;53.404;23.498;2023-11-19T00:42:05;16.48;;;6.78;;
73593;SDS011;64760;53.404;23.498;2023-11-19T00:44:31;21.30;;;8.93;;
73593;SDS011;64760;53.404;23.498;2023-11-19T00:46:59;16.50;;;7.28;;
73593;SDS011;64760;53.404;23.498;2023-11-19T00:49:28;16.67;;;6.50;;
73593;SDS011;64760;53.404;23.498;2023-11-19T00:51:55;13.15;;;6.35;;
73593;SDS011;64760;53.404;23.498;2023-11-19T00:54:21;18.75;;;7.45;;
73593;SDS011;64760;53.404;23.498;2023-11-19T00:56:52;12.98;;;5.35;;
73593;SDS011;64760;53.404;23.498;2023-11-19T00:59:19;15.50;;;6.15;;
73593;SDS011;64760;53.404;23.498;2023-11-19T01:01:46;14.05;;;6.55;;
73593;SDS011;64760;53.404;23.498;2023-11-19T01:04:14;12.45;;;5.72;;
73593;SDS011;64760;53.404;23.498;2023-11-19T01:06:42;20.67;;;5.55;;
73593;SDS011;64760;53.404;23.498;2023-11-19T01:09:08;15.82;;;5.05;;
73593;SDS011;64760;53.404;23.498;2023-11-19T01:11:35;16.33;;;6.25;;
73593;SDS011;64760;53.404;23.498;2023-11-19T01:14:01;12.52;;;5.65;;
73593;SDS011;64760;53.404;23.498;2023-11-19T01:16:28;15.73;;;5.35;;
73593;SDS011;64760;53.404;23.498;2023-11-19T01:18:54;12.50;;;5.72;;
73593;SDS011;64760;53.404;23.498;2023-11-19T01:21:20;16.27;;;5.38;;
73593;SDS011;64760;53.404;23.498;2023-11-19T01:23:48;13.00;;;5.00;;
73593;SDS011;64760;53.404;23.498;2023-11-19T01:26:14;16.40;;;6.65;;
73593;SDS011;64760;53.404;23.498;2023-11-19T01:28:40;15.20;;;5.43;;
73593;SDS011;64760;53.404;23.498;2023-11-19T01:31:11;12.45;;;4.82;;
73593;SDS011;64760;53.404;23.498;2023-11-19T01:33:38;13.50;;;5.68;;
73593;SDS011;64760;53.404;23.498;2023-11-19T01:36:07;17.15;;;6.45;;
73593;SDS011;64760;53.404;23.498;2023-11-19T01:38:36;10.10;;;4.57;;
73593;SDS011;64760;53.404;23.498;2023-11-19T01:41:03;15.68;;;7.00;;
73593;SDS011;64760;53.404;23.498;2023-11-19T01:43:37;14.95;;;6.97;;
73593;SDS011;64760;53.404;23.498;2023-11-19T01:46:06;17.95;;;7.43;;
73593;SDS011;64760;53.404;23.498;2023-11-19T01:48:34;17.10;;;6.25;;
73593;SDS011;64760;53.404;23.498;2023-11-19T01:51:01;12.65;;;4.32;;
73593;SDS011;64760;53.404;23.498;2023-11-19T01:53:28;12.50;;;5.18;;
73593;SDS011;64760;53.404;23.498;2023-11-19T01:55:55;15.02;;;7.22;;
73593;SDS011;64760;53.404;23.498;2023-11-19T01:58:23;18.83;;;7.32;;
73593;SDS011;64760;53.404;23.498;2023-11-19T02:00:50;14.32;;;6.57;;
73593;SDS011;64760;53.404;23.498;2023-11-19T02:03:16;16.17;;;7.20;;
73593;SDS011;64760;53.404;23.498;2023-11-19T02:05:43;12.70;;;5.65;;
73593;SDS011;64760;53.404;23.498;2023-11-19T02:08:09;15.27;;;6.78;;
73593;SDS011;64760;53.404;23.498;2023-11-19T02:10:37;18.05;;;7.93;;
73593;SDS011;64760;53.404;23.498;2023-11-19T02:13:03;19.55;;;8.25;;
73593;SDS011;64760;53.404;23.498;2023-11-19T02:15:32;16.35;;;8.05;;
73593;SDS011;64760;53.404;23.498;2023-11-19T02:18:21;16.17;;;7.57;;
73593;SDS011;64760;53.404;23.498;2023-11-19T02:20:46;14.95;;;7.63;;
73593;SDS011;64760;53.404;23.498;2023-11-19T02:23:15;17.52;;;7.53;;
73593;SDS011;64760;53.404;23.498;2023-11-19T02:25:41;18.67;;;7.95;;
73593;SDS011;64760;53.404;23.498;2023-11-19T02:28:08;21.83;;;7.93;;
73593;SDS011;64760;53.404;23.498;2023-11-19T02:30:38;17.67;;;8.35;;
73593;SDS011;64760;53.404;23.498;2023-11-19T02:33:04;15.65;;;6.25;;
73593;SDS011;64760;53.404;23.498;2023-11-19T02:35:34;12.75;;;6.65;;
73593;SDS011;64760;53.404;23.498;2023-11-19T02:38:01;16.27;;;7.43;;
73593;SDS011;64760;53.404;23.498;2023-11-19T02:40:27;24.42;;;8.88;;
73593;SDS011;64760;53.404;23.498;2023-11-19T02:42:54;19.00;;;7.57;;
73593;SDS011;64760;53.404;23.498;2023-11-19T02:45:24;16.23;;;7.13;;
73593;SDS011;64760;53.404;23.498;2023-11-19T02:47:51;17.10;;;6.65;;
73593;SDS011;64760;53.404;23.498;2023-11-19T02:50:18;19.48;;;6.90;;
73593;SDS011;64760;53.404;23.498;2023-11-19T02:52:54;16.48;;;7.10;;
73593;SDS011;64760;53.404;23.498;2023-11-19T02:55:22;15.98;;;6.03;;
73593;SDS011;64760;53.404;23.498;2023-11-19T02:57:50;13.43;;;5.70;;
73593;SDS011;64760;53.404;23.498;2023-11-19T03:00:17;13.40;;;6.80;;
73593;SDS011;64760;53.404;23.498;2023-11-19T03:02:44;14.10;;;6.47;;
73593;SDS011;64760;53.404;23.498;2023-11-19T03:08:35;16.52;;;6.13;;
73593;SDS011;64760;53.404;23.498;2023-11-19T03:11:01;17.45;;;7.07;;
73593;SDS011;64760;53.404;23.498;2023-11-19T03:13:29;15.20;;;6.80;;
73593;SDS011;64760;53.404;23.498;2023-11-19T03:15:55;15.73;;;6.97;;
73593;SDS011;64760;53.404;23.498;2023-11-19T03:18:21;15.95;;;6.50;;
73593;SDS011;64760;53.404;23.498;2023-11-19T03:20:48;14.77;;;6.10;;
73593;SDS011;64760;53.404;23.498;2023-11-19T03:23:15;13.77;;;6.28;;
73593;SDS011;64760;53.404;23.498;2023-11-19T03:25:42;19.38;;;6.60;;
73593;SDS011;64760;53.404;23.498;2023-11-19T03:28:09;12.75;;;6.20;;
73593;SDS011;64760;53.404;23.498;2023-11-19T03:30:37;14.32;;;5.57;;
73593;SDS011;64760;53.404;23.498;2023-11-19T03:33:03;14.07;;;6.47;;
73593;SDS011;64760;53.404;23.498;2023-11-19T03:35:30;12.18;;;6.00;;
73593;SDS011;64760;53.404;23.498;2023-11-19T03:37:56;17.33;;;6.30;;
73593;SDS011;64760;53.404;23.498;2023-11-19T03:40:24;14.73;;;6.25;;
73593;SDS011;64760;53.404;23.498;2023-11-19T03:42:51;15.80;;;6.68;;
73593;SDS011;64760;53.404;23.498;2023-11-19T03:45:17;12.95;;;5.95;;
73593;SDS011;64760;53.404;23.498;2023-11-19T03:47:43;12.98;;;6.40;;
73593;SDS011;64760;53.404;23.498;2023-11-19T03:50:10;15.25;;;6.93;;
73593;SDS011;64760;53.404;23.498;2023-11-19T03:52:36;12.73;;;4.82;;
73593;SDS011;64760;53.404;23.498;2023-11-19T03:55:03;13.80;;;5.45;;
73593;SDS011;64760;53.404;23.498;2023-11-19T03:57:31;14.43;;;6.15;;
73593;SDS011;64760;53.404;23.498;2023-11-19T03:59:57;18.20;;;6.15;;
73593;SDS011;64760;53.404;23.498;2023-11-19T04:02:24;12.55;;;5.65;;
73593;SDS011;64760;53.404;23.498;2023-11-19T04:04:54;10.75;;;5.30;;
73593;SDS011;64760;53.404;23.498;2023-11-19T04:07:20;16.58;;;7.10;;
73593;SDS011;64760;53.404;23.498;2023-11-19T04:09:47;14.68;;;7.18;;
73593;SDS011;64760;53.404;23.498;2023-11-19T04:12:13;13.40;;;6.50;;
73593;SDS011;64760;53.404;23.498;2023-11-19T04:14:40;18.20;;;7.20;;
73593;SDS011;64760;53.404;23.498;2023-11-19T04:17:07;13.55;;;7.13;;
73593;SDS011;64760;53.404;23.498;2023-11-19T04:22:15;17.88;;;7.40;;
73593;SDS011;64760;53.404;23.498;2023-11-19T04:24:42;14.18;;;6.95;;
73593;SDS011;64760;53.404;23.498;2023-11-19T04:27:10;18.65;;;7.07;;
73593;SDS011;64760;53.404;23.498;2023-11-19T04:29:36;15.57;;;7.40;;
73593;SDS011;64760;53.404;23.498;2023-11-19T04:32:02;12.02;;;5.03;;
73593;SDS011;64760;53.404;23.498;2023-11-19T04:34:29;14.63;;;6.22;;
73593;SDS011;64760;53.404;23.498;2023-11-19T04:36:54;15.40;;;7.50;;
73593;SDS011;64760;53.404;23.498;2023-11-19T04:39:21;15.30;;;6.88;;
73593;SDS011;64760;53.404;23.498;2023-11-19T04:41:48;14.90;;;7.25;;
73593;SDS011;64760;53.404;23.498;2023-11-19T04:44:15;14.10;;;6.28;;
73593;SDS011;64760;53.404;23.498;2023-11-19T04:46:41;14.35;;;6.15;;
73593;SDS011;64760;53.404;23.498;2023-11-19T04:49:10;15.25;;;8.32;;
73593;SDS011;64760;53.404;23.498;2023-11-19T04:51:42;11.50;;;6.28;;
73593;SDS011;64760;53.404;23.498;2023-11-19T04:54:10;15.73;;;7.60;;
73593;SDS011;64760;53.404;23.498;2023-11-19T04:56:36;15.93;;;7.47;;
73593;SDS011;64760;53.404;23.498;2023-11-19T04:59:06;18.75;;;8.10;;
73593;SDS011;64760;53.404;23.498;2023-11-19T05:01:32;15.02;;;7.63;;
73593;SDS011;64760;53.404;23.498;2023-11-19T05:03:59;15.70;;;8.07;;
73593;SDS011;64760;53.404;23.498;2023-11-19T05:06:28;17.80;;;6.70;;
73593;SDS011;64760;53.404;23.498;2023-11-19T05:08:56;16.30;;;8.70;;
73593;SDS011;64760;53.404;23.498;2023-11-19T05:11:22;13.80;;;6.75;;
73593;SDS011;64760;53.404;23.498;2023-11-19T05:13:48;16.90;;;6.55;;
73593;SDS011;64760;53.404;23.498;2023-11-19T05:16:14;19.40;;;8.07;;
73593;SDS011;64760;53.404;23.498;2023-11-19T05:18:41;15.77;;;7.13;;
73593;SDS011;64760;53.404;23.498;2023-11-19T05:21:07;16.33;;;6.90;;
73593;SDS011;64760;53.404;23.498;2023-11-19T05:23:34;19.67;;;7.10;;
73593;SDS011;64760;53.404;23.498;2023-11-19T05:26:01;13.38;;;6.78;;
73593;SDS011;64760;53.404;23.498;2023-11-19T05:28:27;14.02;;;6.13;;
73593;SDS011;64760;53.404;23.498;2023-11-19T05:30:53;14.90;;;7.00;;
73593;SDS011;64760;53.404;23.498;2023-11-19T05:33:19;14.25;;;7.03;;
73593;SDS011;64760;53.404;23.498;2023-11-19T05:35:45;14.85;;;6.20;;
73593;SDS011;64760;53.404;23.498;2023-11-19T05:38:12;16.48;;;7.15;;
73593;SDS011;64760;53.404;23.498;2023-11-19T05:40:38;17.05;;;6.93;;
73593;SDS011;64760;53.404;23.498;2023-11-19T05:43:05;18.95;;;8.13;;
73593;SDS011;64760;53.404;23.498;2023-11-19T05:45:31;14.23;;;7.03;;
73593;SDS011;64760;53.404;23.498;2023-11-19T05:47:58;17.48;;;7.60;;
73593;SDS011;64760;53.404;23.498;2023-11-19T05:50:24;25.23;;;9.95;;
73593;SDS011;64760;53.404;23.498;2023-11-19T05:52:50;14.60;;;7.47;;
73593;SDS011;64760;53.404;23.498;2023-11-19T06:00:11;5.82;;;3.22;;
73593;SDS011;64760;53.404;23.498;2023-11-19T06:06:19;15.25;;;7.32;;
73593;SDS011;64760;53.404;23.498;2023-11-19T06:08:46;19.27;;;8.25;;
73593;SDS011;64760;53.404;23.498;2023-11-19T06:11:12;18.35;;;8.52;;
73593;SDS011;64760;53.404;23.498;2023-11-19T06:13:44;16.85;;;8.02;;
73593;SDS011;64760;53.404;23.498;2023-11-19T06:16:10;18.48;;;7.03;;
73593;SDS011;64760;53.404;23.498;2023-11-19T06:18:37;17.35;;;8.10;;
73593;SDS011;64760;53.404;23.498;2023-11-19T06:21:03;19.52;;;9.07;;
73593;SDS011;64760;53.404;23.498;2023-11-19T06:23:29;16.00;;;7.43;;
73593;SDS011;64760;53.404;23.498;2023-11-19T06:25:55;17.92;;;7.68;;
73593;SDS011;64760;53.404;23.498;2023-11-19T06:28:22;18.33;;;6.93;;
73593;SDS011;64760;53.404;23.498;2023-11-19T06:30:48;16.33;;;6.30;;
73593;SDS011;64760;53.404;23.498;2023-11-19T06:33:14;14.38;;;6.47;;
73593;SDS011;64760;53.404;23.498;2023-11-19T06:35:40;17.60;;;6.55;;
73593;SDS011;64760;53.404;23.498;2023-11-19T06:38:07;17.67;;;7.43;;
73593;SDS011;64760;53.404;23.498;2023-11-19T06:40:33;9.65;;;4.45;;
73593;SDS011;64760;53.404;23.498;2023-11-19T06:45:29;15.73;;;5.13;;
73593;SDS011;64760;53.404;23.498;2023-11-19T06:47:55;13.27;;;5.60;;
73593;SDS011;64760;53.404;23.498;2023-11-19T06:50:22;9.55;;;3.47;;
73593;SDS011;64760;53.404;23.498;2023-11-19T06:52:48;8.98;;;5.20;;
73593;SDS011;64760;53.404;23.498;2023-11-19T06:55:15;13.68;;;5.28;;
73593;SDS011;64760;53.404;23.498;2023-11-19T06:57:42;11.88;;;5.40;;
73593;SDS011;64760;53.404;23.498;2023-11-19T07:00:08;13.40;;;4.97;;
73593;SDS011;64760;53.404;23.498;2023-11-19T07:02:35;13.75;;;6.65;;
73593;SDS011;64760;53.404;23.498;2023-11-19T07:05:01;15.80;;;6.20;;
73593;SDS011;64760;53.404;23.498;2023-11-19T07:07:29;13.75;;;6.50;;
73593;SDS011;64760;53.404;23.498;2023-11-19T07:09:56;10.32;;;5.88;;
73593;SDS011;64760;53.404;23.498;2023-11-19T07:12:22;11.63;;;5.50;;
73593;SDS011;64760;53.404;23.498;2023-11-19T07:14:48;14.57;;;6.55;;
73593;SDS011;64760;53.404;23.498;2023-11-19T07:17:15;9.73;;;5.40;;
73593;SDS011;64760;53.404;23.498;2023-11-19T07:19:41;16.52;;;6.63;;
73593;SDS011;64760;53.404;23.498;2023-11-19T07:22:07;13.73;;;6.35;;
73593;SDS011;64760;53.404;23.498;2023-11-19T07:24:33;10.90;;;5.68;;
73593;SDS011;64760;53.404;23.498;2023-11-19T07:26:59;13.75;;;7.65;;
73593;SDS011;64760;53.404;23.498;2023-11-19T07:29:26;16.77;;;6.43;;
73593;SDS011;64760;53.404;23.498;2023-11-19T07:31:52;12.02;;;6.47;;
73593;SDS011;64760;53.404;23.498;2023-11-19T07:34:18;11.00;;;4.55;;
73593;SDS011;64760;53.404;23.498;2023-11-19T07:36:45;12.93;;;5.50;;
73593;SDS011;64760;53.404;23.498;2023-11-19T07:39:12;12.77;;;6.15;;
73593;SDS011;64760;53.404;23.498;2023-11-19T07:41:39;10.13;;;4.82;;
73593;SDS011;64760;53.404;23.498;2023-11-19T07:44:05;8.48;;;4.75;;
73593;SDS011;64760;53.404;23.498;2023-11-19T07:46:32;13.25;;;6.15;;
73593;SDS011;64760;53.404;23.498;2023-11-19T07:48:58;13.57;;;6.22;;
73593;SDS011;64760;53.404;23.498;2023-11-19T07:51:24;11.73;;;6.38;;
73593;SDS011;64760;53.404;23.498;2023-11-19T07:53:50;15.48;;;6.38;;
73593;SDS011;64760;53.404;23.498;2023-11-19T07:56:17;15.18;;;7.85;;
73593;SDS011;64760;53.404;23.498;2023-11-19T07:58:43;15.07;;;8.20;;
73593;SDS011;64760;53.404;23.498;2023-11-19T08:01:10;10.90;;;4.57;;
73593;SDS011;64760;53.404;23.498;2023-11-19T08:03:36;13.07;;;6.82;;
73593;SDS011;64760;53.404;23.498;2023-11-19T08:06:03;17.67;;;7.60;;
73593;SDS011;64760;53.404;23.498;2023-11-19T08:08:29;18.13;;;7.43;;
73593;SDS011;64760;53.404;23.498;2023-11-19T08:10:56;13.73;;;5.45;;
73593;SDS011;64760;53.404;23.498;2023-11-19T08:13:25;21.17;;;8.15;;
73593;SDS011;64760;53.404;23.498;2023-11-19T08:15:52;19.95;;;9.77;;
73593;SDS011;64760;53.404;23.498;2023-11-19T08:18:18;14.38;;;6.10;;
73593;SDS011;64760;53.404;23.498;2023-11-19T08:20:44;13.43;;;5.38;;
73593;SDS011;64760;53.404;23.498;2023-11-19T08:23:11;18.73;;;6.40;;
73593;SDS011;64760;53.404;23.498;2023-11-19T08:25:38;16.40;;;7.60;;
73593;SDS011;64760;53.404;23.498;2023-11-19T08:28:04;9.13;;;4.85;;
73593;SDS011;64760;53.404;23.498;2023-11-19T08:30:31;12.50;;;5.85;;
73593;SDS011;64760;53.404;23.498;2023-11-19T08:32:58;19.42;;;10.02;;
73593;SDS011;64760;53.404;23.498;2023-11-19T08:35:26;16.65;;;9.18;;
73593;SDS011;64760;53.404;23.498;2023-11-19T08:37:52;25.38;;;12.70;;
73593;SDS011;64760;53.404;23.498;2023-11-19T08:40:19;21.77;;;11.20;;
73593;SDS011;64760;53.404;23.498;2023-11-19T08:42:45;25.25;;;12.80;;
73593;SDS011;64760;53.404;23.498;2023-11-19T08:45:12;24.13;;;9.90;;
73593;SDS011;64760;53.404;23.498;2023-11-19T08:47:38;12.30;;;6.85;;
73593;SDS011;64760;53.404;23.498;2023-11-19T08:50:06;16.17;;;7.18;;
73593;SDS011;64760;53.404;23.498;2023-11-19T08:52:32;13.65;;;7.45;;
73593;SDS011;64760;53.404;23.498;2023-11-19T08:54:59;27.15;;;14.75;;
73593;SDS011;64760;53.404;23.498;2023-11-19T08:57:30;18.05;;;8.07;;
73593;SDS011;64760;53.404;23.498;2023-11-19T08:59:58;19.80;;;9.32;;
73593;SDS011;64760;53.404;23.498;2023-11-19T09:02:25;21.35;;;10.73;;
73593;SDS011;64760;53.404;23.498;2023-11-19T09:04:52;19.42;;;9.82;;
73593;SDS011;64760;53.404;23.498;2023-11-19T09:07:18;30.27;;;13.32;;
73593;SDS011;64760;53.404;23.498;2023-11-19T09:09:44;20.75;;;10.88;;
73593;SDS011;64760;53.404;23.498;2023-11-19T09:12:11;22.17;;;10.10;;
73593;SDS011;64760;53.404;23.498;2023-11-19T09:14:37;21.92;;;10.13;;
73593;SDS011;64760;53.404;23.498;2023-11-19T09:17:03;28.33;;;13.48;;
73593;SDS011;64760;53.404;23.498;2023-11-19T09:19:32;23.48;;;10.32;;
73593;SDS011;64760;53.404;23.498;2023-11-19T09:21:58;16.65;;;7.68;;
73593;SDS011;64760;53.404;23.498;2023-11-19T09:24:24;11.25;;;6.10;;
73593;SDS011;64760;53.404;23.498;2023-11-19T09:26:50;16.08;;;8.00;;
73593;SDS011;64760;53.404;23.498;2023-11-19T09:29:16;23.25;;;10.95;;
73593;SDS011;64760;53.404;23.498;2023-11-19T09:31:42;19.02;;;8.13;;
73593;SDS011;64760;53.404;23.498;2023-11-19T09:34:09;15.55;;;7.43;;
73593;SDS011;64760;53.404;23.498;2023-11-19T09:36:34;17.13;;;9.68;;
73593;SDS011;64760;53.404;23.498;2023-11-19T09:39:01;17.58;;;8.50;;
73593;SDS011;64760;53.404;23.498;2023-11-19T09:41:27;16.50;;;8.00;;
73593;SDS011;64760;53.404;23.498;2023-11-19T09:43:55;17.50;;;7.93;;
73593;SDS011;64760;53.404;23.498;2023-11-19T09:46:21;24.10;;;10.77;;
73593;SDS011;64760;53.404;23.498;2023-11-19T09:48:51;23.55;;;10.40;;
73593;SDS011;64760;53.404;23.498;2023-11-19T09:51:20;19.80;;;9.82;;
73593;SDS011;64760;53.404;23.498;2023-11-19T09:53:47;19.58;;;9.80;;
73593;SDS011;64760;53.404;23.498;2023-11-19T09:56:13;16.55;;;8.77;;
73593;SDS011;64760;53.404;23.498;2023-11-19T09:58:40;13.98;;;7.75;;
73593;SDS011;64760;53.404;23.498;2023-11-19T10:01:07;20.30;;;10.38;;
73593;SDS011;64760;53.404;23.498;2023-11-19T10:03:36;21.70;;;9.82;;
73593;SDS011;64760;53.404;23.498;2023-11-19T10:06:08;21.20;;;11.18;;
73593;SDS011;64760;53.404;23.498;2023-11-19T10:08:38;17.75;;;9.30;;
73593;SDS011;64760;53.404;23.498;2023-11-19T10:11:08;19.95;;;8.80;;
73593;SDS011;64760;53.404;23.498;2023-11-19T10:13:37;17.15;;;9.57;;
73593;SDS011;64760;53.404;23.498;2023-11-19T10:16:04;16.98;;;8.57;;
73593;SDS011;64760;53.404;23.498;2023-11-19T10:18:31;18.52;;;8.63;;
73593;SDS011;64760;53.404;23.498;2023-11-19T10:21:06;16.42;;;8.52;;
73593;SDS011;64760;53.404;23.498;2023-11-19T10:23:49;19.38;;;9.13;;
73593;SDS011;64760;53.404;23.498;2023-11-19T10:26:18;14.30;;;7.40;;
73593;SDS011;64760;53.404;23.498;2023-11-19T10:28:48;21.58;;;9.23;;
73593;SDS011;64760;53.404;23.498;2023-11-19T10:31:17;16.02;;;6.03;;
73593;SDS011;64760;53.404;23.498;2023-11-19T10:33:44;18.10;;;9.23;;
73593;SDS011;64760;53.404;23.498;2023-11-19T10:36:13;15.25;;;7.03;;
73593;SDS011;64760;53.404;23.498;2023-11-19T10:38:40;18.05;;;7.93;;
73593;SDS011;64760;53.404;23.498;2023-11-19T10:41:10;14.48;;;6.63;;
73593;SDS011;64760;53.404;23.498;2023-11-19T10:43:42;12.48;;;5.68;;
73593;SDS011;64760;53.404;23.498;2023-11-19T10:46:10;11.07;;;4.28;;
73593;SDS011;64760;53.404;23.498;2023-11-19T10:48:38;11.43;;;5.22;;
73593;SDS011;64760;53.404;23.498;2023-11-19T10:51:04;8.43;;;3.05;;
73593;SDS011;64760;53.404;23.498;2023-11-19T10:53:32;10.35;;;5.47;;
73593;SDS011;64760;53.404;23.498;2023-11-19T10:55:59;10.20;;;4.65;;
73593;SDS011;64760;53.404;23.498;2023-11-19T10:58:25;13.88;;;5.70;;
73593;SDS011;64760;53.404;23.498;2023-11-19T11:00:55;13.38;;;5.55;;
73593;SDS011;64760;53.404;23.498;2023-11-19T11:03:25;10.40;;;4.75;;
73593;SDS011;64760;53.404;23.498;2023-11-19T11:05:51;18.25;;;7.03;;
73593;SDS011;64760;53.404;23.498;2023-11-19T11:08:18;9.98;;;4.32;;
73593;SDS011;64760;53.404;23.498;2023-11-19T11:10:51;15.45;;;7.85;;
73593;SDS011;64760;53.404;23.498;2023-11-19T11:13:18;16.42;;;7.93;;
73593;SDS011;64760;53.404;23.498;2023-11-19T11:15:44;9.25;;;3.17;;
73593;SDS011;64760;53.404;23.498;2023-11-19T11:18:12;11.40;;;4.88;;
73593;SDS011;64760;53.404;23.498;2023-11-19T11:20:39;15.25;;;7.38;;
73593;SDS011;64760;53.404;23.498;2023-11-19T11:28:35;10.52;;;6.00;;
73593;SDS011;64760;53.404;23.498;2023-11-19T11:38:35;10.82;;;5.82;;
73593;SDS011;64760;53.404;23.498;2023-11-19T11:41:17;13.70;;;6.18;;
73593;SDS011;64760;53.404;23.498;2023-11-19T11:43:50;14.20;;;7.00;;
73593;SDS011;64760;53.404;23.498;2023-11-19T11:49:06;9.57;;;4.90;;
73593;SDS011;64760;53.404;23.498;2023-11-19T11:52:15;10.35;;;3.65;;
73593;SDS011;64760;53.404;23.498;2023-11-19T11:57:06;11.85;;;4.95;;
73593;SDS011;64760;53.404;23.498;2023-11-19T12:02:05;8.75;;;4.95;;
73593;SDS011;64760;53.404;23.498;2023-11-19T12:04:34;14.40;;;5.57;;
73593;SDS011;64760;53.404;23.498;2023-11-19T12:07:08;12.95;;;4.35;;
73593;SDS011;64760;53.404;23.498;2023-11-19T12:09:36;14.10;;;6.03;;
73593;SDS011;64760;53.404;23.498;2023-11-19T12:20:07;12.20;;;5.18;;
73593;SDS011;64760;53.404;23.498;2023-11-19T12:22:37;16.42;;;6.22;;
73593;SDS011;64760;53.404;23.498;2023-11-19T12:25:05;14.55;;;6.07;;
73593;SDS011;64760;53.404;23.498;2023-11-19T12:27:32;10.77;;;4.55;;
73593;SDS011;64760;53.404;23.498;2023-11-19T12:29:59;11.80;;;5.18;;
73593;SDS011;64760;53.404;23.498;2023-11-19T12:32:26;9.13;;;4.00;;
73593;SDS011;64760;53.404;23.498;2023-11-19T12:34:53;13.30;;;5.85;;
73593;SDS011;64760;53.404;23.498;2023-11-19T12:37:19;11.25;;;5.30;;
73593;SDS011;64760;53.404;23.498;2023-11-19T12:39:46;13.77;;;6.75;;
73593;SDS011;64760;53.404;23.498;2023-11-19T12:42:12;15.88;;;5.57;;
73593;SDS011;64760;53.404;23.498;2023-11-19T12:44:39;15.25;;;6.85;;
73593;SDS011;64760;53.404;23.498;2023-11-19T12:47:06;4.70;;;2.97;;
73593;SDS011;64760;53.404;23.498;2023-11-19T12:49:32;8.45;;;4.20;;
73593;SDS011;64760;53.404;23.498;2023-11-19T12:51:59;10.55;;;5.35;;
73593;SDS011;64760;53.404;23.498;2023-11-19T12:54:35;12.45;;;6.25;;
73593;SDS011;64760;53.404;23.498;2023-11-19T12:57:01;12.88;;;5.25;;
73593;SDS011;64760;53.404;23.498;2023-11-19T12:59:28;10.43;;;4.00;;
73593;SDS011;64760;53.404;23.498;2023-11-19T13:01:55;14.30;;;6.13;;
73593;SDS011;64760;53.404;23.498;2023-11-19T13:04:21;8.20;;;4.78;;
73593;SDS011;64760;53.404;23.498;2023-11-19T13:06:47;14.70;;;6.07;;
73593;SDS011;64760;53.404;23.498;2023-11-19T13:09:23;6.50;;;2.90;;
73593;SDS011;64760;53.404;23.498;2023-11-19T13:11:53;14.63;;;6.32;;
73593;SDS011;64760;53.404;23.498;2023-11-19T13:14:19;13.50;;;6.35;;
73593;SDS011;64760;53.404;23.498;2023-11-19T13:16:46;12.38;;;5.85;;
73593;SDS011;64760;53.404;23.498;2023-11-19T13:19:12;12.80;;;5.60;;
73593;SDS011;64760;53.404;23.498;2023-11-19T13:21:39;5.63;;;3.25;;
73593;SDS011;64760;53.404;23.498;2023-11-19T13:24:05;11.05;;;4.88;;
73593;SDS011;64760;53.404;23.498;2023-11-19T13:26:32;6.97;;;3.70;;
73593;SDS011;64760;53.404;23.498;2023-11-19T13:28:57;11.02;;;6.13;;
73593;SDS011;64760;53.404;23.498;2023-11-19T13:31:24;12.70;;;6.43;;
73593;SDS011;64760;53.404;23.498;2023-11-19T13:33:50;8.45;;;4.03;;
73593;SDS011;64760;53.404;23.498;2023-11-19T13:36:16;12.68;;;5.50;;
73593;SDS011;64760;53.404;23.498;2023-11-19T13:38:42;15.48;;;5.88;;
73593;SDS011;64760;53.404;23.498;2023-11-19T13:41:10;13.25;;;5.38;;
73593;SDS011;64760;53.404;23.498;2023-11-19T13:43:37;9.60;;;4.65;;
73593;SDS011;64760;53.404;23.498;2023-11-19T13:46:03;13.57;;;6.20;;
73593;SDS011;64760;53.404;23.498;2023-11-19T13:48:29;12.10;;;4.40;;
73593;SDS011;64760;53.404;23.498;2023-11-19T13:50:56;12.60;;;5.82;;
73593;SDS011;64760;53.404;23.498;2023-11-19T13:53:22;15.23;;;5.97;;
73593;SDS011;64760;53.404;23.498;2023-11-19T13:55:49;13.15;;;5.55;;
73593;SDS011;64760;53.404;23.498;2023-11-19T13:58:15;12.52;;;6.15;;
73593;SDS011;64760;53.404;23.498;2023-11-19T14:00:42;12.32;;;5.90;;
73593;SDS011;64760;53.404;23.498;2023-11-19T14:03:09;6.68;;;3.90;;
73593;SDS011;64760;53.404;23.498;2023-11-19T14:05:38;12.15;;;5.50;;
73593;SDS011;64760;53.404;23.498;2023-11-19T14:08:05;11.05;;;5.80;;
73593;SDS011;64760;53.404;23.498;2023-11-19T14:10:40;14.00;;;5.97;;
73593;SDS011;64760;53.404;23.498;2023-11-19T14:13:07;12.23;;;6.10;;
73593;SDS011;64760;53.404;23.498;2023-11-19T14:15:34;9.68;;;4.88;;
73593;SDS011;64760;53.404;23.498;2023-11-19T14:18:00;10.75;;;6.32;;
73593;SDS011;64760;53.404;23.498;2023-11-19T14:20:26;12.63;;;5.43;;
73593;SDS011;64760;53.404;23.498;2023-11-19T14:22:52;12.18;;;7.05;;
73593;SDS011;64760;53.404;23.498;2023-11-19T14:25:19;10.70;;;5.05;;
73593;SDS011;64760;53.404;23.498;2023-11-19T14:27:45;8.57;;;4.18;;
73593;SDS011;64760;53.404;23.498;2023-11-19T14:30:14;18.10;;;7.40;;
73593;SDS011;64760;53.404;23.498;2023-11-19T14:32:41;13.80;;;5.88;;
73593;SDS011;64760;53.404;23.498;2023-11-19T14:35:08;5.93;;;4.65;;
73593;SDS011;64760;53.404;23.498;2023-11-19T14:37:34;10.68;;;5.90;;
73593;SDS011;64760;53.404;23.498;2023-11-19T14:40:00;10.73;;;6.65;;
73593;SDS011;64760;53.404;23.498;2023-11-19T14:42:29;12.65;;;6.13;;
73593;SDS011;64760;53.404;23.498;2023-11-19T14:44:56;13.23;;;6.60;;
73593;SDS011;64760;53.404;23.498;2023-11-19T14:47:22;14.20;;;7.15;;
73593;SDS011;64760;53.404;23.498;2023-11-19T14:49:48;11.15;;;5.65;;
73593;SDS011;64760;53.404;23.498;2023-11-19T14:52:14;13.88;;;7.82;;
73593;SDS011;64760;53.404;23.498;2023-11-19T14:54:41;18.92;;;8.80;;
73593;SDS011;64760;53.404;23.498;2023-11-19T14:57:07;20.05;;;10.43;;
73593;SDS011;64760;53.404;23.498;2023-11-19T14:59:36;13.15;;;6.40;;
73593;SDS011;64760;53.404;23.498;2023-11-19T15:02:03;15.50;;;7.38;;
73593;SDS011;64760;53.404;23.498;2023-11-19T15:04:30;13.25;;;6.78;;
73593;SDS011;64760;53.404;23.498;2023-11-19T15:06:59;11.52;;;4.85;;
73593;SDS011;64760;53.404;23.498;2023-11-19T15:09:25;13.10;;;6.60;;
73593;SDS011;64760;53.404;23.498;2023-11-19T15:11:54;15.68;;;7.03;;